createdAt,value
2019-03-30T00:01:39.875Z,29.87
2019-03-30T00:04:06.266Z,31.70
2019-03-30T00:06:32.696Z,29.33
2019-03-30T00:08:59.141Z,26.60
2019-03-30T00:11:25.541Z,30.90
2019-03-30T00:13:51.920Z,36.07
2019-03-30T00:16:19.433Z,41.57
2019-03-30T00:18:45.841Z,40.73
2019-03-30T00:21:12.283Z,32.83
2019-03-30T00:23:38.690Z,30.60
2019-03-30T00:26:05.092Z,26.60
2019-03-30T00:28:31.463Z,25.27
2019-03-30T00:30:57.827Z,25.40
2019-03-30T00:33:24.188Z,26.73
2019-03-30T00:35:50.527Z,23.80
2019-03-30T00:38:16.906Z,24.60
2019-03-30T00:40:43.245Z,22.57
2019-03-30T00:43:09.661Z,23.43
2019-03-30T00:45:36.004Z,22.80
2019-03-30T00:48:03.381Z,21.63
2019-03-30T00:50:29.820Z,22.33
2019-03-30T00:52:56.225Z,21.90
2019-03-30T00:55:22.637Z,21.13
2019-03-30T00:57:49.070Z,22.30
2019-03-30T01:00:15.872Z,21.90
2019-03-30T01:02:42.305Z,22.23
2019-03-30T01:05:08.677Z,22.63
2019-03-30T01:07:35.040Z,23.07
2019-03-30T01:10:01.888Z,21.77
2019-03-30T01:12:28.302Z,21.37
2019-03-30T01:14:54.806Z,21.07
2019-03-30T01:17:21.243Z,20.33
2019-03-30T01:19:47.643Z,20.50
2019-03-30T01:22:14.064Z,20.57
2019-03-30T01:24:40.526Z,20.97
2019-03-30T01:27:06.981Z,22.37
2019-03-30T01:29:33.463Z,21.73
2019-03-30T01:31:59.873Z,20.70
2019-03-30T01:34:26.307Z,20.80
2019-03-30T01:36:53.763Z,21.23
2019-03-30T01:39:20.234Z,21.17
2019-03-30T01:41:46.631Z,21.77
2019-03-30T01:44:13.033Z,18.67
2019-03-30T01:46:39.426Z,19.27
2019-03-30T01:49:06.915Z,18.37
2019-03-30T01:51:33.444Z,19.90
2019-03-30T01:53:59.919Z,19.70
2019-03-30T01:56:26.361Z,18.17
2019-03-30T01:58:52.830Z,19.20
2019-03-30T02:01:19.098Z,17.90
2019-03-30T02:03:45.519Z,17.10
2019-03-30T02:06:11.924Z,19.87
2019-03-30T02:08:38.302Z,17.53
2019-03-30T02:11:04.772Z,17.43
2019-03-30T02:13:31.185Z,16.03
2019-03-30T02:15:57.943Z,17.23
2019-03-30T02:18:24.385Z,16.73
2019-03-30T02:20:50.818Z,17.13
2019-03-30T02:23:17.222Z,16.53
2019-03-30T02:25:43.672Z,17.50
2019-03-30T02:28:10.356Z,18.40
2019-03-30T02:30:36.986Z,18.40
2019-03-30T02:33:03.515Z,19.57
2019-03-30T02:35:29.960Z,19.93
2019-03-30T02:37:56.364Z,18.53
2019-03-30T02:40:22.812Z,20.03
2019-03-30T02:42:49.195Z,19.77
2019-03-30T02:45:15.649Z,21.20
2019-03-30T02:47:41.999Z,21.30
2019-03-30T02:50:08.607Z,21.67
2019-03-30T02:52:34.988Z,21.57
2019-03-30T02:55:01.419Z,22.40
2019-03-30T02:57:27.983Z,22.33
2019-03-30T02:59:54.452Z,22.70
2019-03-30T03:02:20.856Z,23.07
2019-03-30T03:04:47.314Z,23.43
2019-03-30T03:07:13.756Z,27.33
2019-03-30T03:09:40.146Z,27.20
2019-03-30T03:12:06.584Z,24.57
2019-03-30T03:14:32.989Z,26.60
2019-03-30T03:16:59.391Z,26.20
2019-03-30T03:19:25.794Z,26.20
2019-03-30T03:21:52.254Z,24.57
2019-03-30T03:24:18.701Z,29.97
2019-03-30T03:26:45.148Z,26.17
2019-03-30T03:29:11.677Z,24.33
2019-03-30T03:31:38.083Z,24.40
2019-03-30T03:34:04.560Z,23.80
2019-03-30T03:36:31.000Z,24.93
2019-03-30T03:38:57.454Z,25.40
2019-03-30T03:41:23.887Z,25.43
2019-03-30T03:43:50.286Z,26.77
2019-03-30T03:46:16.758Z,26.23
2019-03-30T03:48:43.612Z,24.70
2019-03-30T03:51:24.923Z,24.40
2019-03-30T03:53:39.473Z,25.03
2019-03-30T03:56:07.564Z,25.37
2019-03-30T03:58:35.014Z,26.53
2019-03-30T04:01:02.337Z,25.37
2019-03-30T04:03:32.953Z,27.47
2019-03-30T04:06:03.200Z,24.97
2019-03-30T04:08:32.656Z,24.63
2019-03-30T04:10:59.644Z,24.57
2019-03-30T04:13:27.613Z,24.33
2019-03-30T04:15:54.144Z,22.83
2019-03-30T04:18:20.573Z,24.40
2019-03-30T04:20:46.922Z,23.53
2019-03-30T04:23:13.319Z,23.13
2019-03-30T04:25:39.747Z,22.10
2019-03-30T04:28:06.279Z,21.83
2019-03-30T04:30:32.812Z,23.63
2019-03-30T04:32:59.295Z,21.77
2019-03-30T04:35:25.698Z,21.80
2019-03-30T04:37:52.096Z,20.03
2019-03-30T04:40:18.483Z,20.27
2019-03-30T04:42:44.843Z,22.13
2019-03-30T04:45:12.417Z,20.30
2019-03-30T04:47:38.869Z,18.93
2019-03-30T04:50:05.837Z,20.33
2019-03-30T04:52:32.197Z,19.43
2019-03-30T04:54:58.620Z,21.33
2019-03-30T04:57:25.078Z,18.20
2019-03-30T04:59:51.500Z,20.17
2019-03-30T05:02:19.071Z,18.57
2019-03-30T05:04:45.505Z,21.53
2019-03-30T05:07:12.030Z,17.67
2019-03-30T05:09:38.567Z,18.40
2019-03-30T05:12:05.014Z,17.40
2019-03-30T05:14:31.466Z,17.70
2019-03-30T05:16:57.831Z,17.23
2019-03-30T05:19:24.231Z,17.67
2019-03-30T05:21:50.695Z,17.43
2019-03-30T05:24:17.056Z,17.43
2019-03-30T05:26:43.519Z,16.80
2019-03-30T05:29:09.855Z,17.27
2019-03-30T05:31:36.279Z,16.40
2019-03-30T05:34:02.662Z,17.77
2019-03-30T05:36:29.066Z,16.63
2019-03-30T05:38:55.657Z,16.30
2019-03-30T05:41:22.062Z,15.97
2019-03-30T05:43:48.504Z,16.53
2019-03-30T05:46:14.846Z,16.13
2019-03-30T05:48:41.227Z,15.53
2019-03-30T05:51:07.646Z,15.43
2019-03-30T05:53:34.024Z,16.73
2019-03-30T05:56:00.443Z,17.23
2019-03-30T05:58:26.854Z,14.73
2019-03-30T06:00:53.302Z,16.13
2019-03-30T06:03:19.747Z,17.10
2019-03-30T06:05:46.172Z,15.17
2019-03-30T06:08:12.594Z,16.23
2019-03-30T06:10:39.150Z,14.40
2019-03-30T06:13:05.750Z,13.57
2019-03-30T06:15:32.258Z,13.27
2019-03-30T06:17:58.626Z,14.00
2019-03-30T06:20:25.044Z,13.80
2019-03-30T06:22:51.501Z,13.60
2019-03-30T06:25:17.950Z,14.07
2019-03-30T06:27:44.391Z,14.13
2019-03-30T06:30:17.856Z,13.23
2019-03-30T06:32:44.674Z,11.73
2019-03-30T06:35:11.591Z,12.17
2019-03-30T06:37:38.007Z,12.37
2019-03-30T06:40:04.896Z,12.00
2019-03-30T06:42:31.374Z,12.27
2019-03-30T06:44:57.793Z,12.73
2019-03-30T06:47:24.247Z,11.73
2019-03-30T06:49:50.705Z,12.50
2019-03-30T06:52:17.157Z,11.73
2019-03-30T06:54:43.659Z,13.33
2019-03-30T06:57:10.135Z,12.03
2019-03-30T06:59:36.509Z,12.63
2019-03-30T07:02:03.001Z,11.27
2019-03-30T07:04:29.444Z,13.57
2019-03-30T07:06:56.023Z,11.60
2019-03-30T07:09:25.716Z,11.27
2019-03-30T07:11:56.120Z,10.93
2019-03-30T07:14:24.058Z,11.70
2019-03-30T07:16:53.221Z,12.77
2019-03-30T07:19:20.989Z,11.40
2019-03-30T07:21:47.438Z,11.27
2019-03-30T07:24:13.985Z,11.73
2019-03-30T07:26:40.423Z,11.50
2019-03-30T07:29:06.862Z,12.20
2019-03-30T07:31:33.277Z,10.73
2019-03-30T07:33:59.752Z,10.97
2019-03-30T07:36:26.193Z,11.73
2019-03-30T07:38:52.650Z,10.53
2019-03-30T07:41:19.051Z,12.10
2019-03-30T07:43:45.452Z,11.30
2019-03-30T07:46:11.920Z,10.87
2019-03-30T07:48:38.316Z,10.97
2019-03-30T07:51:05.717Z,11.43
2019-03-30T07:53:43.768Z,14.70
2019-03-30T07:56:08.168Z,11.60
2019-03-30T07:58:28.531Z,12.10
2019-03-30T08:00:54.935Z,11.33
2019-03-30T08:03:21.332Z,13.27
2019-03-30T08:05:47.793Z,11.20
2019-03-30T08:08:14.241Z,13.40
2019-03-30T08:10:40.671Z,12.27
2019-03-30T08:13:07.230Z,11.37
2019-03-30T08:15:33.731Z,10.67
2019-03-30T08:18:00.137Z,14.67
2019-03-30T08:20:26.561Z,10.67
2019-03-30T08:22:52.936Z,11.50
2019-03-30T08:25:19.381Z,12.43
2019-03-30T08:27:45.806Z,12.07
2019-03-30T08:30:12.599Z,12.23
2019-03-30T08:32:39.059Z,10.73
2019-03-30T08:35:06.032Z,12.60
2019-03-30T08:37:32.480Z,13.03
2019-03-30T08:39:58.868Z,13.27
2019-03-30T08:42:25.334Z,12.90
2019-03-30T08:44:51.832Z,11.63
2019-03-30T08:47:18.292Z,13.07
2019-03-30T08:49:44.809Z,11.93
2019-03-30T08:52:11.324Z,13.13
2019-03-30T08:54:37.874Z,12.30
2019-03-30T08:57:04.349Z,13.03
2019-03-30T08:59:30.974Z,11.80
2019-03-30T09:01:57.498Z,13.53
2019-03-30T09:04:23.926Z,12.03
2019-03-30T09:06:50.414Z,12.90
2019-03-30T09:09:16.866Z,13.43
2019-03-30T09:11:43.746Z,12.73
2019-03-30T09:14:10.259Z,13.13
2019-03-30T09:16:36.678Z,12.63
2019-03-30T09:19:03.150Z,13.77
2019-03-30T09:21:29.602Z,12.73
2019-03-30T09:24:08.921Z,14.03
2019-03-30T09:26:24.360Z,13.13
2019-03-30T09:28:50.993Z,13.23
2019-03-30T09:31:17.560Z,12.40
2019-03-30T09:33:44.141Z,12.43
2019-03-30T09:36:10.580Z,12.67
2019-03-30T09:38:38.109Z,13.00
2019-03-30T09:41:04.524Z,12.30
2019-03-30T09:43:30.986Z,11.97
2019-03-30T09:45:57.390Z,11.70
2019-03-30T09:48:23.815Z,14.07
2019-03-30T09:50:50.278Z,13.47
2019-03-30T09:53:16.758Z,14.37
2019-03-30T09:55:43.176Z,13.87
2019-03-30T09:58:09.593Z,14.93
2019-03-30T10:00:36.552Z,14.73
2019-03-30T10:03:06.045Z,15.23
2019-03-30T10:05:31.673Z,14.93
2019-03-30T10:07:58.132Z,16.33
2019-03-30T10:10:24.503Z,14.83
2019-03-30T10:12:50.940Z,15.33
2019-03-30T10:15:17.375Z,13.87
2019-03-30T10:17:43.812Z,14.60
2019-03-30T10:20:11.281Z,12.50
2019-03-30T10:22:37.704Z,13.53
2019-03-30T10:25:05.151Z,13.97
2019-03-30T10:27:31.592Z,13.37
2019-03-30T10:29:58.055Z,13.10
2019-03-30T10:32:24.518Z,13.93
2019-03-30T10:34:50.908Z,12.97
2019-03-30T10:37:17.336Z,14.47
2019-03-30T10:39:43.716Z,13.93
2019-03-30T10:42:10.117Z,13.43
2019-03-30T10:44:37.666Z,13.83
2019-03-30T10:47:04.120Z,13.97
2019-03-30T10:51:56.287Z,15.87
2019-03-30T10:54:22.770Z,13.73
2019-03-30T10:56:49.209Z,14.67
2019-03-30T10:59:15.626Z,15.27
2019-03-30T11:01:42.144Z,14.50
2019-03-30T11:04:09.691Z,13.90
2019-03-30T11:06:36.167Z,13.97
2019-03-30T11:09:04.025Z,13.97
2019-03-30T11:11:30.723Z,14.87
2019-03-30T11:13:57.126Z,14.40
2019-03-30T11:16:23.569Z,15.30
2019-03-30T11:18:49.926Z,13.53
2019-03-30T11:21:16.334Z,13.50
2019-03-30T11:23:42.697Z,14.38
2019-03-30T11:26:09.095Z,13.98
2019-03-30T11:28:35.501Z,16.87
2019-03-30T11:31:05.174Z,15.73
2019-03-30T11:33:30.089Z,13.98
2019-03-30T11:35:56.488Z,14.87
2019-03-30T11:38:23.019Z,15.83
2019-03-30T11:40:49.445Z,14.60
2019-03-30T11:43:16.088Z,15.33
2019-03-30T11:45:42.732Z,14.83
2019-03-30T11:48:09.556Z,15.43
2019-03-30T11:50:36.078Z,14.90
2019-03-30T11:53:02.521Z,14.03
2019-03-30T11:55:29.031Z,16.03
2019-03-30T11:57:55.709Z,16.87
2019-03-30T12:00:22.459Z,15.63
2019-03-30T12:02:48.893Z,17.27
2019-03-30T12:05:15.296Z,16.77
2019-03-30T12:07:41.746Z,15.43
2019-03-30T12:10:08.151Z,17.30
2019-03-30T12:12:37.349Z,16.17
2019-03-30T12:15:06.018Z,15.50
2019-03-30T12:17:32.533Z,15.53
2019-03-30T12:19:58.930Z,17.53
2019-03-30T12:22:25.456Z,16.63
2019-03-30T12:24:52.867Z,17.43
2019-03-30T12:27:19.280Z,15.70
2019-03-30T12:29:45.772Z,18.60
2019-03-30T12:32:12.182Z,15.63
2019-03-30T12:34:38.649Z,14.30
2019-03-30T12:37:05.057Z,15.23
2019-03-30T12:39:31.675Z,15.70
2019-03-30T12:41:58.099Z,14.00
2019-03-30T12:44:24.506Z,13.60
2019-03-30T12:46:50.918Z,14.40
2019-03-30T12:49:17.345Z,14.47
2019-03-30T12:51:43.835Z,14.43
2019-03-30T12:54:10.264Z,14.97
2019-03-30T12:56:36.844Z,13.90
2019-03-30T12:59:03.234Z,12.53
2019-03-30T13:01:29.728Z,15.17
2019-03-30T13:03:56.030Z,12.90
2019-03-30T13:06:22.471Z,13.03
2019-03-30T13:08:48.797Z,14.43
2019-03-30T13:11:15.257Z,13.77
2019-03-30T13:13:41.588Z,12.63
2019-03-30T13:16:07.997Z,12.63
2019-03-30T13:18:34.337Z,13.73
2019-03-30T13:21:00.752Z,14.60
2019-03-30T13:23:27.158Z,14.03
2019-03-30T13:26:03.473Z,12.60
2019-03-30T13:28:21.906Z,11.87
2019-03-30T13:30:48.312Z,13.33
2019-03-30T13:33:14.697Z,13.97
2019-03-30T13:35:41.149Z,15.17
2019-03-30T13:38:07.650Z,12.93
2019-03-30T13:40:34.101Z,12.90
2019-03-30T13:43:00.527Z,12.17
2019-03-30T13:45:26.983Z,13.60
2019-03-30T13:47:53.418Z,11.40
2019-03-30T13:50:19.876Z,12.97
2019-03-30T13:52:46.304Z,13.63
2019-03-30T13:55:13.046Z,12.47
2019-03-30T13:57:39.512Z,13.43
2019-03-30T14:00:06.882Z,13.13
2019-03-30T14:02:33.436Z,13.90
2019-03-30T14:04:59.886Z,13.03
2019-03-30T14:07:26.348Z,13.47
2019-03-30T14:09:52.714Z,12.83
2019-03-30T14:12:19.142Z,12.50
2019-03-30T14:14:45.631Z,12.13
2019-03-30T14:17:12.086Z,12.73
2019-03-30T14:19:38.495Z,12.37
2019-03-30T14:22:04.948Z,11.27
2019-03-30T14:24:31.349Z,14.23
2019-03-30T14:26:58.632Z,14.70
2019-03-30T14:29:25.104Z,15.60
2019-03-30T14:31:51.500Z,13.70
2019-03-30T14:34:17.884Z,13.93
2019-03-30T14:36:44.269Z,14.47
2019-03-30T14:39:10.713Z,18.60
2019-03-30T14:41:37.178Z,13.97
2019-03-30T14:44:04.574Z,14.93
2019-03-30T14:46:31.207Z,13.90
2019-03-30T14:48:57.660Z,12.50
2019-03-30T14:51:24.090Z,13.13
2019-03-30T14:53:50.520Z,12.80
2019-03-30T14:56:17.028Z,12.87
2019-03-30T14:58:43.464Z,12.70
2019-03-30T15:01:09.788Z,11.73
2019-03-30T15:03:36.180Z,15.53
2019-03-30T15:06:02.865Z,11.83
2019-03-30T15:08:29.249Z,12.70
2019-03-30T15:10:55.632Z,10.83
2019-03-30T15:13:22.059Z,11.87
2019-03-30T15:15:48.423Z,11.37
2019-03-30T15:18:14.841Z,12.50
2019-03-30T15:20:41.225Z,11.97
2019-03-30T15:23:07.644Z,13.13
2019-03-30T15:25:34.035Z,12.83
2019-03-30T15:28:00.361Z,13.37
2019-03-30T15:30:26.784Z,12.97
2019-03-30T15:32:53.541Z,13.83
2019-03-30T15:35:20.206Z,13.07
2019-03-30T15:37:46.563Z,13.87
2019-03-30T15:40:13.330Z,12.60
2019-03-30T15:42:40.423Z,12.77
2019-03-30T15:45:08.687Z,13.40
2019-03-30T15:47:35.106Z,12.10
2019-03-30T15:50:01.528Z,13.33
2019-03-30T15:52:27.965Z,13.20
2019-03-30T15:54:54.369Z,13.57
2019-03-30T15:57:20.778Z,15.60
2019-03-30T15:59:47.167Z,15.30
2019-03-30T16:02:13.667Z,14.53
2019-03-30T16:04:40.086Z,13.60
2019-03-30T16:07:06.990Z,16.77
2019-03-30T16:09:33.628Z,13.70
2019-03-30T16:12:00.008Z,16.43
2019-03-30T16:14:26.434Z,14.70
2019-03-30T16:16:53.160Z,14.17
2019-03-30T16:19:19.628Z,15.30
2019-03-30T16:21:49.462Z,15.10
2019-03-30T16:24:14.188Z,14.33
2019-03-30T16:26:42.333Z,16.43
2019-03-30T16:29:08.863Z,15.10
2019-03-30T16:31:36.361Z,14.93
2019-03-30T16:34:02.757Z,14.07
2019-03-30T16:36:29.099Z,15.73
2019-03-30T16:38:55.494Z,17.23
2019-03-30T16:41:22.031Z,16.90
2019-03-30T16:43:48.400Z,23.60
2019-03-30T16:46:14.770Z,17.90
2019-03-30T16:48:41.169Z,16.43
2019-03-30T16:51:07.686Z,20.87
2019-03-30T16:53:34.082Z,22.37
2019-03-30T16:56:00.481Z,20.07
2019-03-30T16:58:26.924Z,18.60
2019-03-30T17:00:56.581Z,17.70
2019-03-30T17:03:21.575Z,19.07
2019-03-30T17:05:47.985Z,19.20
2019-03-30T17:08:14.515Z,19.30
2019-03-30T17:10:40.889Z,18.17
2019-03-30T17:13:07.670Z,17.40
2019-03-30T17:15:34.544Z,18.20
2019-03-30T17:18:00.962Z,18.80
2019-03-30T17:20:27.368Z,17.37
2019-03-30T17:22:53.787Z,18.43
2019-03-30T17:25:20.186Z,19.83
2019-03-30T17:27:57.364Z,21.83
2019-03-30T17:30:14.941Z,23.00
2019-03-30T17:32:41.339Z,21.73
2019-03-30T17:35:07.769Z,18.43
2019-03-30T17:37:34.297Z,19.50
2019-03-30T17:40:00.869Z,23.20
2019-03-30T17:42:27.428Z,24.30
2019-03-30T17:44:53.822Z,24.13
2019-03-30T17:47:20.264Z,22.23
2019-03-30T17:49:46.696Z,21.20
2019-03-30T17:52:13.148Z,21.20
2019-03-30T17:54:40.010Z,19.30
2019-03-30T17:57:06.588Z,19.23
2019-03-30T17:59:32.960Z,23.00
2019-03-30T18:01:59.408Z,24.33
2019-03-30T18:04:25.787Z,23.90
2019-03-30T18:06:52.221Z,22.93
2019-03-30T18:09:18.717Z,22.77
2019-03-30T18:11:45.143Z,26.23
2019-03-30T18:14:11.527Z,24.00
2019-03-30T18:16:37.935Z,24.93
2019-03-30T18:19:04.466Z,23.13
2019-03-30T18:21:31.729Z,28.33
2019-03-30T18:23:58.332Z,28.93
2019-03-30T18:26:24.740Z,27.37
2019-03-30T18:28:52.215Z,25.10
2019-03-30T18:31:18.622Z,26.77
2019-03-30T18:33:45.256Z,28.40
2019-03-30T18:36:14.410Z,26.63
2019-03-30T18:38:40.990Z,28.27
2019-03-30T18:41:07.411Z,29.60
2019-03-30T18:43:33.869Z,28.47
2019-03-30T18:46:00.240Z,28.33
2019-03-30T18:48:26.695Z,33.03
2019-03-30T18:50:53.083Z,31.57
2019-03-30T18:53:19.508Z,32.77
2019-03-30T18:55:47.078Z,30.57
2019-03-30T18:58:13.553Z,30.53
2019-03-30T19:00:40.109Z,30.57
2019-03-30T19:03:06.602Z,39.63
2019-03-30T19:05:33.442Z,40.80
2019-03-30T19:08:01.442Z,33.07
2019-03-30T19:10:28.511Z,38.00
2019-03-30T19:12:55.176Z,34.33
2019-03-30T19:15:21.621Z,39.87
2019-03-30T19:17:48.100Z,38.43
2019-03-30T19:20:14.621Z,37.73
2019-03-30T19:22:41.144Z,33.97
2019-03-30T19:25:08.278Z,37.90
2019-03-30T19:27:34.803Z,32.20
2019-03-30T19:30:01.332Z,36.80
2019-03-30T19:32:27.746Z,37.60
2019-03-30T19:34:54.168Z,39.47
2019-03-30T19:37:20.631Z,37.43
2019-03-30T19:39:47.079Z,36.80
2019-03-30T19:42:15.829Z,40.03
2019-03-30T19:44:41.682Z,36.67
2019-03-30T19:47:08.033Z,37.73
2019-03-30T19:49:34.468Z,38.03
2019-03-30T19:52:00.949Z,38.77
2019-03-30T19:54:27.622Z,37.50
2019-03-30T19:56:54.113Z,36.43
2019-03-30T19:59:20.466Z,38.37
2019-03-30T20:01:47.028Z,38.53
2019-03-30T20:04:13.436Z,37.90
2019-03-30T20:06:39.854Z,37.83
2019-03-30T20:09:07.971Z,37.20
2019-03-30T20:11:36.300Z,38.50
2019-03-30T20:14:02.797Z,39.80
2019-03-30T20:16:29.259Z,38.87
2019-03-30T20:19:10.963Z,39.77
2019-03-30T20:21:24.079Z,39.27
2019-03-30T20:23:50.595Z,38.13
2019-03-30T20:26:17.038Z,38.67
2019-03-30T20:28:43.486Z,37.43
2019-03-30T20:31:09.980Z,39.57
2019-03-30T20:33:36.435Z,40.90
2019-03-30T20:36:02.961Z,36.90
2019-03-30T20:38:29.310Z,40.00
2019-03-30T20:40:55.681Z,37.97
2019-03-30T20:43:22.071Z,39.17
2019-03-30T20:45:48.539Z,40.20
2019-03-30T20:48:14.946Z,40.13
2019-03-30T20:50:41.393Z,39.37
2019-03-30T20:53:07.746Z,39.43
2019-03-30T20:55:34.318Z,38.23
2019-03-30T20:58:00.698Z,39.60
2019-03-30T21:00:27.102Z,38.63
2019-03-30T21:02:53.505Z,38.63
2019-03-30T21:05:20.032Z,39.77
2019-03-30T21:07:46.340Z,39.23
2019-03-30T21:10:13.087Z,40.70
2019-03-30T21:12:39.556Z,34.93
2019-03-30T21:15:06.648Z,38.57
2019-03-30T21:17:33.341Z,35.90
2019-03-30T21:19:59.770Z,37.93
2019-03-30T21:22:26.207Z,35.70
2019-03-30T21:24:52.609Z,39.00
2019-03-30T21:27:18.941Z,37.30
2019-03-30T21:29:54.371Z,35.27
2019-03-30T21:32:13.489Z,37.10
2019-03-30T21:34:40.076Z,35.23
2019-03-30T21:37:06.474Z,36.07
2019-03-30T21:39:32.930Z,34.57
2019-03-30T21:41:59.348Z,34.87
2019-03-30T21:44:25.784Z,35.40
2019-03-30T21:46:52.243Z,34.33
2019-03-30T21:49:18.661Z,35.97
2019-03-30T21:51:45.111Z,36.37
2019-03-30T21:54:11.540Z,36.53
2019-03-30T21:56:37.969Z,38.67
2019-03-30T21:59:04.472Z,37.27
2019-03-30T22:01:30.841Z,38.73
2019-03-30T22:03:57.227Z,39.13
2019-03-30T22:06:23.655Z,40.13
2019-03-30T22:08:51.149Z,36.77
2019-03-30T22:11:17.571Z,37.83
2019-03-30T22:13:44.181Z,37.10
2019-03-30T22:16:10.566Z,38.33
2019-03-30T22:18:36.966Z,37.13
2019-03-30T22:21:03.357Z,36.67
2019-03-30T22:23:29.804Z,37.50
2019-03-30T22:25:56.193Z,39.17
2019-03-30T22:28:22.675Z,38.07
2019-03-30T22:30:49.061Z,37.87
2019-03-30T22:33:15.495Z,40.27
2019-03-30T22:35:42.192Z,37.97
2019-03-30T22:38:08.617Z,38.87
2019-03-30T22:40:35.066Z,38.60
2019-03-30T22:43:01.441Z,37.03
2019-03-30T22:45:27.871Z,39.23
2019-03-30T22:47:54.307Z,36.90
2019-03-30T22:50:20.762Z,37.57
2019-03-30T22:52:47.155Z,38.67
2019-03-30T22:55:13.619Z,38.83
2019-03-30T22:57:39.982Z,39.43
2019-03-30T23:00:07.581Z,40.90
2019-03-30T23:02:35.897Z,38.13
2019-03-30T23:05:02.407Z,39.47
2019-03-30T23:07:28.903Z,40.57
2019-03-30T23:09:55.342Z,40.43
2019-03-30T23:12:21.728Z,40.27
2019-03-30T23:14:50.013Z,40.07
2019-03-30T23:17:16.375Z,41.13
2019-03-30T23:19:42.800Z,40.00
2019-03-30T23:22:09.612Z,43.60
2019-03-30T23:24:36.091Z,43.83
2019-03-30T23:27:02.622Z,42.97
2019-03-30T23:29:29.013Z,44.17
2019-03-30T23:31:55.565Z,44.33
2019-03-30T23:34:21.982Z,47.07
2019-03-30T23:36:48.382Z,44.87
2019-03-30T23:39:14.788Z,46.60
2019-03-30T23:41:41.203Z,45.10
2019-03-30T23:44:07.587Z,45.63
2019-03-30T23:46:34.098Z,42.70
2019-03-30T23:49:00.479Z,44.30
2019-03-30T23:51:26.870Z,45.33
2019-03-30T23:53:53.241Z,45.00
2019-03-30T23:56:21.709Z,43.50
2019-03-30T23:58:49.647Z,49.47
